WMKD

Kuantan/Sultan Haji Ahmad Shah Airport

Airport
ICAO code
WMKD
IATA Code
KUA
Summary
ICAO Region
APAC
ICAO Territory
Location

Kuantan, Pahang

Serving
Kuantan
Elevation
58 ft
Coordinates
3° 46' 31" N , 103° 12' 32" E
KCC
Metar
Observation
WMKD 250200Z VRB04KT 9999 FEW020 29/23 Q1010 NOSIG
Station
Kuantan
Date/Time
2022-09-25 02:00:00
Wind speed
04 kts
Lowest cloud amount
few clouds
Temperature
29°C
Dew point
23°C
Humidity
70%
QNH
1010 hPa
Weather condition
n/a

Sultan Ahmad Shah Airport is an airport that serves Kuantan, a city in the state of Pahang in Malaysia. The airport is located 15 km from the city.

Climatology

Tropical Rainforest climate (Köppen climate classification Af) - almost no distinct seasons, average daily temperature around 27°C throughout the year. Extensive cloud cover and heavy rainfall prevent temperatures from rising much over 33°C. The diurnal temperature change is between 2°C and 5°C which is greater than the annual temperature range of 2°C. Rainfall is heavy and is usually convectional and in the afternoon.

Airport map

Aerial View

SKYbrary Partners:

Safety knowledge contributed by: